WEATHER DATA

YESTERDAY
Time Temp. Dewp. Hum. Wind dir Wind speed Wind gust Bar. 1h Prec. 24h Prec.
00:06 2.9 1 87 324 1.4 3.9 1016.5 0.9090 0.1000
00:15 2.5 0.6 87 330 0.8 2.5 1016.6 1.0100 0.3000
00:26 2.4 0.6 88 305 1.1 3.6 1016.6 0.7070 0.4000
00:36 2.6 0.8 88 302 1.4 5 1016.8 0.7070 0.5000
00:46 2.7 0.8 87 308 1.1 4.2 1017 0.5050 0.5000
00:55 2.9 1 87 315 1.7 6.7 1017.1 0.4040 0.5000
01:06 2.9 1 87 315 1.4 5.3 1017.3 0.2020 0.5000
01:16 2.9 0.8 86 315 1.4 4.2 1017.1 0.1010 0.5000
01:28 2.9 0.8 86 302 1.1 3.1 1017.3 0.1010 0.5000
01:42 2.8 0.7 86 316 1.7 7.5 1017.4 0.0000 0.5000
01:53 2.7 0.6 86 295 1.1 4.2 1017.7 0.0000 0.5000
02:03 2.7 0.6 86 316 1.4 6.1 1018 0.1010 0.6000
02:13 2.8 0.5 85 304 1.7 6.7 1018.1 0.1010 0.6000
02:23 2.7 0.6 86 300 1.1 3.6 1018.4 0.1010 0.6000
02:33 2.8 0.7 86 315 1.1 4.7 1018.5 0.1010 0.6000
02:43 2.7 0.6 86 311 1.1 6.1 1018.6 0.1010 0.6000
02:53 2.7 0.6 86 320 2.2 7.5 1018.7 0.1010 0.6000
03:03 2.7 0.6 86 312 1.7 5.3 1018.7 0.1010 0.7000
03:13 2.6 0.5 86 308 1.4 6.1 1018.8 0.1010 0.7000
03:22 2.7 0.4 85 305 1.4 6.9 1018.9 0.1010 0.7000
03:31 2.6 0.3 85 318 0.8 2.8 1019 0.1010 0.7000
03:41 2.6 0.3 85 315 1.1 3.1 1019 0.1010 0.7000
03:51 2.5 0.2 85 347 1.4 4.2 1019.1 0.2020 0.8000
04:02 2.4 0.3 86 324 2.5 8.1 1019 0.1010 0.8000
04:12 2.1 0.2 87 329 1.7 8.6 1019.4 0.2020 0.9000
04:21 1.8 -0.1 87 335 1.1 2.8 1019.5 0.2020 0.9000
04:32 1.6 -0.1 88 297 1.1 2.5 1019.6 0.2020 0.9000
04:42 1.6 -0.1 88 315 1.7 5 1019.7 0.2020 0.9000
04:52 1.7 -0.2 87 307 1.4 5 1019.9 0.1010 0.9000
05:02 1.8 -0.3 86 308 1.4 6.4 1019.8 0.1010 0.9000
05:12 1.7 -0.3 86 317 1.7 5.3 1019.7 0.0000 0.9000
05:22 1.7 -0.3 86 315 1.4 4.2 1019.8 0.0000 0.9000
05:32 1.6 -0.4 86 327 1.4 3.1 1020.1 0.0000 0.9000
05:42 1.6 -0.4 86 318 1.7 7.8 1019.8 0.0000 0.9000
06:02 1.6 -0.6 85 318 1.4 4.7 1019.8 0.0000 0.9000
06:12 1.6 -0.6 85 294 1.4 4.7 1019.8 0.0000 0.9000
06:22 1.6 -0.7 84 303 1.7 7.8 1020 0.0000 0.9000
06:32 1.6 -0.9 83 287 1.1 6.4 1019.8 0.0000 0.9000
06:43 1.5 -0.9 83 306 1.1 6.1 1020.1 0.0000 0.9000
06:48 1.5 -1.1 82 309 1.4 5.3 1020.1 0.0000 0.9000
07:03 1.5 -1.1 82 315 1.4 6.7 1020.1 0.1010 1.0000
07:13 1.5 -1.1 82 254 0.8 2.5 1020.1 0.1010 1.0000
07:23 1.5 -1.1 82 315 1.1 4.7 1020.5 0.1010 1.0000
07:28 1.5 -1.1 82 326 1.4 6.9 1020.4 0.1010 1.0000
07:38 1.6 -1 82 321 1.4 4.7 1020.8 0.1010 1.0000
07:48 1.6 -1.1 81 322 1.4 5 1020.9 0.2020 1.1000
07:58 1.7 -1.1 81 309 1.1 3.6 1020.8 0.1010 1.1000
08:08 1.6 -1.1 81 313 1.4 5 1020.8 0.2020 1.2000
08:18 1.7 -1.1 81 333 1.1 3.9 1020.8 0.2020 1.2000
08:28 1.7 -1.1 81 320 2.2 6.4 1021 0.2020 1.2000
08:39 1.6 -1 82 315 1.4 3.1 1021 0.1010 1.2000
08:51 1.5 -0.9 83 309 1.4 6.4 1021.5 0.1010 1.2000
09:01 1.4 -1.2 82 324 1.7 5.3 1021.6 0.0000 1.2000
09:09 1.4 -1.2 82 328 1.1 8.9 1021.8 0.0000 1.2000
09:20 1.4 -1.2 82 292 1.1 2.5 1022 0.0000 1.2000
09:30 1.4 -1.2 82 315 1.1 4.7 1022 0.0000 1.2000
09:40 1.4 -1.2 82 320 1.1 3.9 1022.2 0.0000 1.2000
09:49 1.3 -1.3 82 323 0.8 2.8 1022.2 0.0000 1.2000
10:00 1.3 -1.3 82 281 1.1 3.9 1022.2 0.0000 1.2000
10:10 1.3 -1.1 83 303 0.8 2.8 1022.3 0.0000 1.2000
10:20 1.2 -1.2 83 321 0.8 2.8 1022.3 0.0000 1.2000
10:30 1.2 -1.2 83 326 1.4 4.2 1022.7 0.0000 1.2000
10:40 0.9 -0.9 87 330 1.1 3.9 1022.7 0.0000 1.2000
10:50 0.7 -0.9 88 319 0.3 1.1 1022.9 0.0000 1.2000
11:00 0.6 -0.9 89 315 0.3 1.1 1022.9 0.0000 1.2000
11:10 0.6 -0.9 89 232 0.3 1.1 1022.7 0.0000 1.2000
11:20 0.6 -0.7 90 332 0.3 1.1 1022.8 0.0000 1.2000
11:30 0.6 -0.7 90 315 0.8 1.7 1023 0.0000 1.2000
11:41 0.5 -0.8 90 302 0.8 3.6 1023.4 0.0000 1.2000
11:50 0.6 -0.9 89 289 1.1 3.1 1023.4 0.0000 1.2000
12:00 0.8 -1 87 303 1.7 5 1023.4 0.0000 1.2000
12:10 0.9 -1 86 278 1.1 2.2 1023.3 0.0000 1.2000
12:21 0.9 -1.3 84 292 1.4 5.3 1023.3 0.0000 1.2000
12:30 1 -1.4 83 310 1.1 3.1 1023.3 0.0000 1.2000
12:40 1.1 -1.3 83 312 1.1 2.8 1023.3 0.0000 1.2000
12:51 1.1 -1.3 83 281 0.8 1.7 1023 0.0000 1.2000
13:01 1.2 -1.2 83 270 0.3 2.5 1022.8 0.0000 1.2000
13:10 1.2 -1.2 83 315 0.8 1.7 1022.7 0.0000 1.2000
13:21 1.2 -1.2 83 315 0.3 1.4 1022.5 0.0000 1.2000
13:31 1.2 -1.2 83 270 0.3 0.8 1022.3 0.0000 1.2000
13:41 1.1 -1.3 83 319 1.1 3.1 1022.6 0.0000 1.2000
13:50 0.9 -1.2 85 318 0.3 1.7 1022.7 0.0000 1.2000
14:01 0.9 -1 86 270 0.3 1.1 1022.7 0.0000 1.2000
14:04 0.9 -1 86 309 0.8 4.7 1022.7 0.0000 1.2000
14:14 0.9 -1.3 84 298 1.1 3.9 1023 0.0000 1.2000
14:24 0.9 -1.5 83 315 1.4 4.7 1022.9 0.0000 1.2000
14:34 1 -1.5 82 287 1.1 3.6 1022.9 0.0000 1.2000
14:44 1 -1.5 82 318 0.8 1.7 1022.7 0.0000 1.2000
14:55 1 -1.5 82 317 1.1 2.8 1022.8 0.0000 1.2000
15:04 0.9 -1.5 83 319 1.1 2.5 1022.7 0.0000 1.2000
15:14 0.9 -1.6 82 318 0.8 3.1 1023 0.0000 1.2000
15:24 0.9 -1.5 83 315 0.8 1.4 1022.8 0.0000 1.2000
15:35 0.9 -1.6 82 332 0.8 2.5 1022.6 0.0000 1.2000
15:48 0.9 -1.8 81 315 0.8 4.7 1022.6 0.0000 1.2000
15:59 0.9 -1.8 81 340 0.8 2.2 1022.7 0.0000 1.2000
16:08 0.9 -2.1 79 295 1.1 4.2 1022.7 0.0000 1.2000
16:18 0.9 -2.1 79 315 0.8 1.4 1022.6 0.0000 1.2000
16:28 0.9 -2.1 79 322 1.1 2.5 1022.6 0.0000 1.2000
16:38 0.9 -1.9 80 330 0.8 2.5 1022.8 0.0000 1.2000
16:48 0.9 -1.9 80 325 0.8 3.6 1022.8 0.0000 1.2000
16:58 0.9 -1.9 80 334 1.1 3.9 1022.7 0.0000 1.2000
17:09 0.9 -1.9 80 315 1.4 3.6 1022.8 0.0000 1.2000
17:18 0.8 -2 80 310 0.3 1.7 1022.7 0.0000 1.2000
17:28 0.7 -2.1 80 315 0.3 1.1 1022.3 0.0000 1.2000
17:38 0.7 -2.2 79 307 0.8 2.2 1022.2 0.0000 1.2000
17:49 0.7 -2.2 79 322 1.1 2.8 1022.1 0.0000 1.2000
17:58 0.8 -2.1 79 315 0.8 2.5 1022.1 0.0000 1.2000
18:08 0.8 -2.1 79 306 0.8 2.2 1022 0.0000 1.2000
18:19 0.8 -2.1 79 270 0.3 1.4 1021.8 0.0000 1.2000
18:29 0.8 -2 80 333 0.8 2.2 1021.9 0.0000 1.2000
18:38 0.8 -1.8 81 348 0.8 1.4 1021.8 0.0000 1.2000
18:49 0.8 -1.7 82 330 0.3 1.7 1021.9 0.0000 1.2000
18:59 0.7 -1.8 82 334 0.3 1.7 1022.1 0.0000 1.2000
19:08 0.7 -1.6 83 331 1.4 4.2 1022.5 0.0000 1.2000
19:19 0.8 -1.4 84 326 0.8 3.1 1022.2 0.0000 1.2000
19:29 0.8 -1.5 83 295 1.1 4.2 1022.3 0.0000 1.2000
19:39 0.8 -1.7 82 280 1.1 2.8 1022.3 0.0000 1.2000
19:48 0.9 -1.8 81 300 0.8 2.5 1022 0.0000 1.2000
19:59 0.9 -1.6 82 323 1.4 3.6 1022.2 0.0000 1.2000
20:11 0.7 -1.5 84 330 1.1 5.3 1022.5 0.0000 1.2000
20:21 0.6 -1.4 85 322 1.4 4.7 1022.3 0.0000 1.2000
20:30 0.6 -1.6 84 324 1.4 5 1022.5 0.0000 1.2000
20:41 0.6 -1.9 82 296 0.8 2.2 1022.2 0.0000 1.2000
20:49 0.7 -1.9 81 307 1.1 6.4 1022.3 0.0000 1.2000
20:59 0.7 -2.1 80 313 1.4 5 1022.3 0.1010 1.3000
21:10 0.7 -2.1 80 323 1.7 7.8 1022.2 0.1010 1.3000
21:20 0.8 -2 80 315 1.1 3.1 1022.2 0.1010 1.3000
21:29 0.8 -2 80 309 1.4 3.6 1022.1 0.1010 1.3000
21:39 0.8 -2 80 310 1.1 3.1 1022.2 0.1010 1.3000
21:45 0.8 -1.8 81 308 0.8 2.2 1022.2 0.1010 1.3000
21:55 0.8 -1.8 81 308 1.1 3.1 1021.9 0.0000 1.3000
22:09 0.7 -1.8 82 321 1.7 3.9 1021.7 0.1010 1.4000
22:20 0.6 -1.4 85 349 0.8 2.2 1021.7 0.1010 1.4000
22:30 0.5 -1.5 85 306 1.1 3.9 1021.9 0.1010 1.4000
22:35 0.5 -1.5 85 303 1.1 3.1 1021.7 0.1010 1.4000
22:50 0.4 -1.6 85 315 0.8 2.2 1021.7 0.1010 1.4000
23:01 0.4 -1.5 86 321 1.7 10.3 1022.7 0.0000 1.4000
23:12 -0.3 -1.4 91 337 2.5 8.9 1023.1 0.0000 1.4000
23:22 -0.6 -1.5 93 323 1.4 3.6 1023 0.0000 1.4000
23:27 -0.7 -1.6 93 329 1.7 5 1022.9 0.0000 1.4000
23:42 -0.9 -1.6 94 336 1.4 3.6 1022.9 0.0000 1.4000
23:52 -0.9 -1.6 94 322 1.4 4.2 1022.8 0.0000 1.4000

DAY STATISTIC

2018-12-10
TEMPERATURE
AVERAGE
1.3
HIGH
2.9
00:06
LOW
-0.9
23:42
PRESSURE
AVERAGE
1021.3
HIGH
1023.4
11:41
LOW
1016.5
00:06
DEWPOINT
AVERAGE
-1.0
HIGH
1.0
00:06
LOW
-2.2
17:38
HUMIDITY
AVERAGE
84
HIGH
94
23:42
LOW
79
16:08
WIND SPEED
AVERAGE
1.1
HIGH
2.5
04:02
WIND GUST
AVERAGE
3.9
HIGH
10.3
23:01
WIND DIRECTION
PREVAILING
NW
86.6%
N
2.8
NE
0.0
E
0.0
SE
0.0
S
0.0
SW
0.7
W
9.9
NW
86.6
PRECIPITATION
RAIN HOUR
1.0
RAIN DAY
1.4
TEMPERATURE (°C)
LOW
-0.9
HIGH
2.9
AVERAGE
1.3
PRESSURE (hpa)
LOW
1016.5
HIGH
1023.4
AVERAGE
1021.3
DEVICE